createdAt,value
2018-06-17T00:00:10.899Z,76.21
2018-06-17T00:00:42.067Z,76.50
2018-06-17T00:01:13.240Z,76.35
2018-06-17T00:01:44.409Z,76.30
2018-06-17T00:02:15.647Z,76.07
2018-06-17T00:02:46.821Z,75.93
2018-06-17T00:03:17.987Z,76.67
2018-06-17T00:03:49.152Z,76.58
2018-06-17T00:04:20.321Z,76.48
2018-06-17T00:04:51.507Z,76.84
2018-06-17T00:05:22.685Z,76.46
2018-06-17T00:05:53.895Z,76.92
2018-06-17T00:06:25.071Z,76.28
2018-06-17T00:06:56.255Z,76.95
2018-06-17T00:07:27.468Z,76.65
2018-06-17T00:07:58.666Z,76.30
2018-06-17T00:08:29.841Z,76.26
2018-06-17T00:09:01.031Z,76.46
2018-06-17T00:09:32.228Z,76.26
2018-06-17T00:10:03.483Z,76.78
2018-06-17T00:10:34.655Z,76.63
2018-06-17T00:11:06.681Z,76.63
2018-06-17T00:11:37.863Z,76.99
2018-06-17T00:12:09.033Z,77.21
2018-06-17T00:12:40.227Z,76.63
2018-06-17T00:13:11.400Z,77.19
2018-06-17T00:13:42.590Z,77.04
2018-06-17T00:14:13.788Z,77.28
2018-06-17T00:14:44.975Z,76.80
2018-06-17T00:15:16.228Z,76.76
2018-06-17T00:15:47.411Z,77.02
2018-06-17T00:16:18.589Z,77.15
2018-06-17T00:16:49.765Z,77.24
2018-06-17T00:17:20.932Z,77.75
2018-06-17T00:17:52.132Z,77.22
2018-06-17T00:18:23.297Z,76.90
2018-06-17T00:18:54.467Z,76.68
2018-06-17T00:19:25.662Z,76.25
2018-06-17T00:19:56.819Z,76.86
2018-06-17T00:20:28.021Z,76.46
2018-06-17T00:20:59.212Z,77.14
2018-06-17T00:21:30.406Z,76.77
2018-06-17T00:22:01.588Z,77.15
2018-06-17T00:22:32.786Z,76.94
2018-06-17T00:23:04.035Z,77.14
2018-06-17T00:23:35.235Z,77.59
2018-06-17T00:24:06.404Z,76.78
2018-06-17T00:24:37.648Z,76.86
2018-06-17T00:25:08.826Z,77.52
2018-06-17T00:25:40.042Z,77.73
2018-06-17T00:26:11.209Z,77.63
2018-06-17T00:26:42.418Z,77.17
2018-06-17T00:27:13.631Z,77.37
2018-06-17T00:27:44.797Z,77.64
2018-06-17T00:28:15.985Z,77.13
2018-06-17T00:28:47.218Z,77.64
2018-06-17T00:29:18.418Z,77.72
2018-06-17T00:29:49.610Z,77.01
2018-06-17T00:30:20.823Z,76.92
2018-06-17T00:30:52.072Z,77.22
2018-06-17T00:31:23.240Z,77.31
2018-06-17T00:31:54.408Z,77.07
2018-06-17T00:32:25.575Z,77.06
2018-06-17T00:32:56.749Z,77.52
2018-06-17T00:33:27.915Z,77.00
2018-06-17T00:33:59.083Z,76.19
2018-06-17T00:34:30.290Z,76.11
2018-06-17T00:35:01.467Z,76.71
2018-06-17T00:35:32.663Z,76.83
2018-06-17T00:36:03.851Z,76.56
2018-06-17T00:36:35.100Z,76.29
2018-06-17T00:37:06.311Z,76.94
2018-06-17T00:37:37.528Z,76.39
2018-06-17T00:38:08.715Z,76.11
2018-06-17T00:38:39.882Z,76.67
2018-06-17T00:39:12.335Z,76.14
2018-06-17T00:39:43.499Z,75.96
2018-06-17T00:40:14.700Z,76.54
2018-06-17T00:40:45.915Z,75.79
2018-06-17T00:41:17.111Z,76.72
2018-06-17T00:41:48.275Z,76.01
2018-06-17T00:42:19.446Z,76.98
2018-06-17T00:42:50.680Z,77.24
2018-06-17T00:43:21.876Z,77.17
2018-06-17T00:43:53.058Z,77.39
2018-06-17T00:44:24.249Z,76.92
2018-06-17T00:44:55.438Z,76.91
2018-06-17T00:45:26.621Z,77.61
2018-06-17T00:45:57.814Z,77.34
2018-06-17T00:46:28.974Z,76.70
2018-06-17T00:47:00.135Z,77.08
2018-06-17T00:47:31.299Z,76.72
2018-06-17T00:48:02.492Z,76.38
2018-06-17T00:48:33.664Z,76.88
2018-06-17T00:49:04.831Z,76.81
2018-06-17T00:49:36.003Z,76.14
2018-06-17T00:50:07.168Z,75.54
2018-06-17T00:50:38.354Z,75.41
2018-06-17T00:51:09.588Z,75.59
2018-06-17T00:51:40.787Z,74.79
2018-06-17T00:52:11.990Z,75.07
2018-06-17T00:52:43.152Z,75.67
2018-06-17T00:53:14.343Z,75.32
2018-06-17T00:53:45.528Z,75.48
2018-06-17T00:54:16.696Z,75.50
2018-06-17T00:54:47.926Z,75.64
2018-06-17T00:55:19.104Z,75.66
2018-06-17T00:55:50.281Z,75.75
2018-06-17T00:56:21.461Z,75.37
2018-06-17T00:56:52.627Z,75.50
2018-06-17T00:57:23.796Z,75.26
2018-06-17T00:57:54.956Z,75.48
2018-06-17T00:58:26.145Z,75.84
2018-06-17T00:58:57.328Z,75.49
2018-06-17T00:59:28.511Z,75.68
2018-06-17T00:59:59.735Z,75.25
2018-06-17T01:00:30.914Z,75.64
2018-06-17T01:01:02.108Z,75.40
2018-06-17T01:01:33.307Z,75.90
2018-06-17T01:02:04.486Z,75.18
2018-06-17T01:02:35.648Z,74.99
2018-06-17T01:03:06.816Z,75.21
2018-06-17T01:03:37.992Z,75.13
2018-06-17T01:04:09.235Z,75.39
2018-06-17T01:04:40.459Z,75.19
2018-06-17T01:05:11.657Z,74.80
2018-06-17T01:05:42.832Z,74.66
2018-06-17T01:06:14.091Z,74.44
2018-06-17T01:06:45.260Z,75.04
2018-06-17T01:07:16.424Z,74.75
2018-06-17T01:07:47.597Z,74.65
2018-06-17T01:08:18.771Z,74.45
2018-06-17T01:08:49.935Z,74.06
2018-06-17T01:09:21.144Z,74.34
2018-06-17T01:09:52.311Z,74.41
2018-06-17T01:10:23.507Z,73.94
2018-06-17T01:10:54.713Z,73.73
2018-06-17T01:11:25.980Z,73.27
2018-06-17T01:11:57.143Z,73.39
2018-06-17T01:12:28.344Z,72.92
2018-06-17T01:12:59.525Z,73.91
2018-06-17T01:13:30.688Z,73.41
2018-06-17T01:14:01.930Z,73.75
2018-06-17T01:14:33.091Z,73.12
2018-06-17T01:15:04.257Z,73.28
2018-06-17T01:15:35.430Z,73.69
2018-06-17T01:16:06.603Z,73.74
2018-06-17T01:16:37.772Z,73.38
2018-06-17T01:17:08.956Z,73.37
2018-06-17T01:17:40.126Z,73.46
2018-06-17T01:18:11.286Z,73.54
2018-06-17T01:18:42.456Z,73.59
2018-06-17T01:19:13.672Z,74.03
2018-06-17T01:19:44.846Z,74.36
2018-06-17T01:20:16.016Z,74.85
2018-06-17T01:20:47.202Z,74.57
2018-06-17T01:21:18.375Z,74.49
2018-06-17T01:21:49.545Z,74.37
2018-06-17T01:22:20.716Z,74.34
2018-06-17T01:22:51.920Z,74.59
2018-06-17T01:23:23.107Z,74.49
2018-06-17T01:23:54.288Z,74.78
2018-06-17T01:24:25.521Z,74.54
2018-06-17T01:24:56.684Z,73.97
2018-06-17T01:25:27.853Z,74.41
2018-06-17T01:25:59.024Z,74.20
2018-06-17T01:26:30.197Z,74.63
2018-06-17T01:27:01.369Z,74.79
2018-06-17T01:27:32.536Z,74.19
2018-06-17T01:28:03.718Z,74.27
2018-06-17T01:28:34.896Z,74.63
2018-06-17T01:29:06.064Z,74.29
2018-06-17T01:29:37.264Z,74.64
2018-06-17T01:30:08.428Z,74.32
2018-06-17T01:30:39.606Z,74.78
2018-06-17T01:31:10.791Z,74.32
2018-06-17T01:31:41.981Z,75.12
2018-06-17T01:32:13.177Z,75.54
2018-06-17T01:32:44.343Z,75.23
2018-06-17T01:33:15.513Z,75.32
2018-06-17T01:33:46.691Z,74.72
2018-06-17T01:34:17.908Z,74.73
2018-06-17T01:34:49.095Z,75.17
2018-06-17T01:35:20.283Z,74.84
2018-06-17T01:35:51.464Z,74.74
2018-06-17T01:36:22.641Z,74.55
2018-06-17T01:36:53.800Z,74.74
2018-06-17T01:37:24.961Z,74.79
2018-06-17T01:37:56.132Z,75.11
2018-06-17T01:38:27.331Z,75.61
2018-06-17T01:38:58.505Z,75.22
2018-06-17T01:39:29.667Z,75.79
2018-06-17T01:40:00.863Z,75.43
2018-06-17T01:40:32.033Z,75.61
2018-06-17T01:41:03.226Z,75.46
2018-06-17T01:41:34.418Z,75.81
2018-06-17T01:42:05.611Z,75.40
2018-06-17T01:42:36.800Z,75.79
2018-06-17T01:43:07.972Z,75.21
2018-06-17T01:43:39.142Z,75.44
2018-06-17T01:44:10.318Z,74.94
2018-06-17T01:44:41.548Z,75.63
2018-06-17T01:45:12.722Z,75.40
2018-06-17T01:45:43.903Z,75.93
2018-06-17T01:46:15.072Z,75.40
2018-06-17T01:46:46.260Z,75.93
2018-06-17T01:47:17.429Z,76.03
2018-06-17T01:47:48.676Z,76.34
2018-06-17T01:48:19.872Z,76.38
2018-06-17T01:48:51.040Z,75.86
2018-06-17T01:49:22.263Z,76.10
2018-06-17T01:49:53.440Z,76.67
2018-06-17T01:50:24.608Z,76.31
2018-06-17T01:50:55.791Z,77.11
2018-06-17T01:51:26.987Z,76.57
2018-06-17T01:51:58.194Z,77.17
2018-06-17T01:52:29.368Z,77.18
2018-06-17T01:53:00.617Z,77.30
2018-06-17T01:53:31.787Z,76.77
2018-06-17T01:54:02.969Z,77.46
2018-06-17T01:54:34.147Z,76.90
2018-06-17T01:55:05.331Z,77.03
2018-06-17T01:55:36.522Z,77.05
2018-06-17T01:56:07.711Z,77.35
2018-06-17T01:56:38.925Z,77.35
2018-06-17T01:57:10.115Z,77.32
2018-06-17T01:57:41.272Z,76.87
2018-06-17T01:58:12.495Z,77.49
2018-06-17T01:58:43.689Z,77.24
2018-06-17T01:59:14.881Z,77.41
2018-06-17T01:59:46.108Z,77.30
2018-06-17T02:00:17.280Z,77.89
2018-06-17T02:00:48.487Z,77.48
2018-06-17T02:01:19.675Z,77.60
2018-06-17T02:01:50.858Z,76.85
2018-06-17T02:02:22.051Z,77.10
2018-06-17T02:02:53.255Z,77.33
2018-06-17T02:03:24.443Z,77.70
2018-06-17T02:03:55.671Z,78.27
2018-06-17T02:04:26.865Z,78.81
2018-06-17T02:04:58.047Z,77.96
2018-06-17T02:05:29.243Z,77.87
2018-06-17T02:06:00.447Z,78.16
2018-06-17T02:06:31.627Z,77.95
2018-06-17T02:07:02.797Z,78.10
2018-06-17T02:07:33.969Z,77.57
2018-06-17T02:08:05.157Z,78.27
2018-06-17T02:08:36.319Z,77.72
2018-06-17T02:09:07.514Z,78.58
2018-06-17T02:09:38.684Z,78.00
2018-06-17T02:10:09.844Z,78.11
2018-06-17T02:10:41.023Z,78.55
2018-06-17T02:11:12.201Z,77.87
2018-06-17T02:11:43.417Z,78.44
2018-06-17T02:12:14.649Z,78.39
2018-06-17T02:12:45.881Z,78.59
2018-06-17T02:13:17.112Z,77.87
2018-06-17T02:13:48.376Z,78.12
2018-06-17T02:14:19.604Z,78.30
2018-06-17T02:14:50.879Z,78.81
2018-06-17T02:15:22.114Z,78.24
2018-06-17T02:15:53.366Z,78.36
2018-06-17T02:16:24.599Z,78.68
2018-06-17T02:16:55.868Z,78.71
2018-06-17T02:17:27.110Z,78.41
2018-06-17T02:17:58.342Z,78.75
2018-06-17T02:18:29.569Z,78.81
2018-06-17T02:19:00.801Z,78.35
2018-06-17T02:19:32.032Z,78.01
2018-06-17T02:20:03.274Z,78.42
2018-06-17T02:20:34.498Z,78.42
2018-06-17T02:21:05.747Z,78.04
2018-06-17T02:21:37.012Z,78.71
2018-06-17T02:22:08.242Z,78.19
2018-06-17T02:22:39.473Z,78.22
2018-06-17T02:23:10.710Z,79.00
2018-06-17T02:23:41.945Z,78.98
2018-06-17T02:24:13.173Z,78.49
2018-06-17T02:24:44.457Z,78.67
2018-06-17T02:25:15.684Z,78.23
2018-06-17T02:25:46.923Z,78.42
2018-06-17T02:26:18.152Z,78.39
2018-06-17T02:26:49.389Z,78.86
2018-06-17T02:27:20.625Z,78.60
2018-06-17T02:27:51.857Z,78.66
2018-06-17T02:28:23.109Z,78.95
2018-06-17T02:28:54.337Z,79.07
2018-06-17T02:29:25.569Z,79.25
2018-06-17T02:29:56.849Z,78.95
2018-06-17T02:30:28.073Z,78.62
2018-06-17T02:30:59.343Z,78.56
2018-06-17T02:31:30.577Z,78.75
2018-06-17T02:32:01.813Z,78.39
2018-06-17T02:32:33.093Z,79.19
2018-06-17T02:33:04.333Z,78.94
2018-06-17T02:33:35.637Z,79.17
2018-06-17T02:34:06.864Z,78.82
2018-06-17T02:34:38.090Z,79.49
2018-06-17T02:35:09.321Z,78.89
2018-06-17T02:35:40.550Z,79.14
2018-06-17T02:36:11.780Z,79.15
2018-06-17T02:36:43.013Z,78.77
2018-06-17T02:37:14.249Z,79.52
2018-06-17T02:37:45.520Z,79.28
2018-06-17T02:38:16.777Z,79.39
2018-06-17T02:38:48.025Z,79.06
2018-06-17T02:39:19.254Z,79.36
2018-06-17T02:39:50.485Z,79.84
2018-06-17T02:40:21.721Z,79.84
2018-06-17T02:40:52.967Z,79.59
2018-06-17T02:41:24.204Z,80.09
2018-06-17T02:41:55.441Z,80.28
2018-06-17T02:42:26.673Z,80.16
2018-06-17T02:42:57.956Z,79.53
2018-06-17T02:43:29.205Z,79.70
2018-06-17T02:44:00.444Z,80.16
2018-06-17T02:44:31.684Z,79.86
2018-06-17T02:45:02.958Z,79.67
2018-06-17T02:45:34.189Z,79.80
2018-06-17T02:46:05.421Z,80.39
2018-06-17T02:46:36.653Z,79.74
2018-06-17T02:47:07.889Z,79.96
2018-06-17T02:47:39.127Z,79.81
2018-06-17T02:48:10.389Z,79.80
2018-06-17T02:48:41.641Z,80.56
2018-06-17T02:49:12.882Z,80.63
2018-06-17T02:49:44.105Z,80.69
2018-06-17T02:50:15.338Z,80.06
2018-06-17T02:50:46.614Z,79.84
2018-06-17T02:51:17.846Z,80.08
2018-06-17T02:51:49.077Z,79.99
2018-06-17T02:52:20.302Z,79.95
2018-06-17T02:52:51.526Z,80.19
2018-06-17T02:53:22.756Z,79.69
2018-06-17T02:53:53.999Z,79.55
2018-06-17T02:54:25.233Z,79.66
2018-06-17T02:54:56.463Z,79.39
2018-06-17T02:55:27.693Z,79.90
2018-06-17T02:55:58.979Z,79.51
2018-06-17T02:56:30.211Z,80.02
2018-06-17T02:57:01.490Z,79.64
2018-06-17T02:57:32.722Z,79.10
2018-06-17T02:58:03.956Z,79.01
2018-06-17T02:58:35.297Z,78.39
2018-06-17T02:59:06.529Z,79.08
2018-06-17T02:59:37.752Z,78.51
2018-06-17T03:00:08.985Z,78.78
2018-06-17T03:00:40.227Z,78.50
2018-06-17T03:01:11.497Z,78.32
2018-06-17T03:01:42.729Z,78.63
2018-06-17T03:02:14.017Z,78.37
2018-06-17T03:02:45.256Z,78.66
2018-06-17T03:03:16.491Z,78.43
2018-06-17T03:03:47.791Z,77.83
2018-06-17T03:04:19.045Z,78.05
2018-06-17T03:04:50.283Z,77.26
2018-06-17T03:05:21.517Z,77.28
2018-06-17T03:05:52.753Z,76.62
2018-06-17T03:06:23.982Z,76.82
2018-06-17T03:06:55.221Z,76.93
2018-06-17T03:07:26.497Z,76.27
2018-06-17T03:07:57.729Z,76.42
2018-06-17T03:08:28.960Z,75.61
2018-06-17T03:09:00.193Z,76.10
2018-06-17T03:09:31.425Z,75.77
2018-06-17T03:10:02.688Z,75.71
2018-06-17T03:10:33.917Z,74.98
2018-06-17T03:11:05.149Z,74.74
2018-06-17T03:11:36.381Z,74.99
2018-06-17T03:12:07.616Z,74.39
2018-06-17T03:12:38.850Z,74.85
2018-06-17T03:13:10.084Z,74.43
2018-06-17T03:13:41.309Z,74.07
2018-06-17T03:14:12.541Z,74.01
2018-06-17T03:14:43.778Z,74.55
2018-06-17T03:15:15.057Z,74.60
2018-06-17T03:15:46.288Z,74.34
2018-06-17T03:16:17.521Z,74.25
2018-06-17T03:16:48.748Z,74.58
2018-06-17T03:17:19.972Z,74.52
2018-06-17T03:17:51.197Z,74.66
2018-06-17T03:18:22.488Z,74.50
2018-06-17T03:18:53.729Z,74.36
2018-06-17T03:19:24.966Z,75.10
2018-06-17T03:19:56.201Z,74.85
2018-06-17T03:20:27.469Z,75.27
2018-06-17T03:20:58.717Z,75.37
2018-06-17T03:21:29.954Z,75.31
2018-06-17T03:22:01.176Z,76.00
2018-06-17T03:22:32.402Z,75.72
2018-06-17T03:23:03.636Z,75.64
2018-06-17T03:23:34.862Z,76.16
2018-06-17T03:24:06.158Z,76.33
2018-06-17T03:24:37.404Z,76.56
2018-06-17T03:25:08.646Z,75.89
2018-06-17T03:25:39.884Z,75.61
2018-06-17T03:26:11.138Z,75.62
2018-06-17T03:26:42.360Z,75.68
2018-06-17T03:27:13.585Z,75.53
2018-06-17T03:27:44.816Z,75.33
2018-06-17T03:28:16.049Z,75.23
2018-06-17T03:28:47.289Z,75.84
2018-06-17T03:29:18.573Z,75.12
2018-06-17T03:29:49.812Z,75.16
2018-06-17T03:30:21.054Z,75.71
2018-06-17T03:30:52.310Z,75.71
2018-06-17T03:31:23.545Z,75.58
2018-06-17T03:31:54.781Z,75.19
2018-06-17T03:32:26.020Z,75.60
2018-06-17T03:32:57.258Z,75.29
2018-06-17T03:33:28.517Z,75.53
2018-06-17T03:33:59.741Z,75.66
2018-06-17T03:34:31.011Z,75.61
2018-06-17T03:35:02.252Z,76.25
2018-06-17T03:35:33.484Z,76.23
2018-06-17T03:36:04.718Z,76.47
2018-06-17T03:36:35.949Z,76.05
2018-06-17T03:37:07.180Z,76.02
2018-06-17T03:37:38.410Z,76.33
2018-06-17T03:38:09.638Z,75.70
2018-06-17T03:38:40.895Z,76.09
2018-06-17T03:39:12.132Z,75.73
2018-06-17T03:39:43.421Z,75.21
2018-06-17T03:40:14.662Z,73.94
2018-06-17T03:40:45.929Z,72.92
2018-06-17T03:41:17.170Z,72.41
2018-06-17T03:41:48.412Z,71.79
2018-06-17T03:42:19.654Z,71.63
2018-06-17T03:42:50.883Z,71.92
2018-06-17T03:43:22.113Z,71.20
2018-06-17T03:43:53.341Z,70.94
2018-06-17T03:44:24.577Z,70.74
2018-06-17T03:44:55.850Z,69.66
2018-06-17T03:45:27.084Z,69.55
2018-06-17T03:45:58.334Z,68.87
2018-06-17T03:46:29.570Z,68.23
2018-06-17T03:47:00.801Z,67.36
2018-06-17T03:47:32.037Z,67.14
2018-06-17T03:48:03.297Z,66.55
2018-06-17T03:48:34.577Z,65.76
2018-06-17T03:49:05.813Z,65.80
2018-06-17T03:49:37.050Z,65.30
2018-06-17T03:50:08.290Z,64.76
2018-06-17T03:50:39.527Z,65.19
2018-06-17T03:51:10.856Z,65.42
2018-06-17T03:51:42.124Z,66.42
2018-06-17T03:52:13.357Z,66.27
2018-06-17T03:52:44.597Z,66.59
2018-06-17T03:53:15.834Z,67.41
2018-06-17T03:53:47.078Z,67.95
2018-06-17T03:54:18.305Z,67.94
2018-06-17T03:54:49.549Z,68.18
2018-06-17T03:55:20.781Z,68.93
2018-06-17T03:55:52.032Z,68.79
2018-06-17T03:56:23.308Z,68.83
2018-06-17T03:56:54.552Z,69.35
2018-06-17T03:57:25.789Z,68.08
2018-06-17T03:57:57.061Z,68.45
2018-06-17T03:58:28.293Z,67.78
2018-06-17T03:58:59.525Z,67.83
2018-06-17T03:59:30.769Z,67.05
2018-06-17T04:00:02.015Z,66.31
2018-06-17T04:00:33.248Z,66.38
2018-06-17T04:01:04.488Z,66.43
2018-06-17T04:01:35.724Z,66.31
2018-06-17T04:02:07.005Z,66.38
2018-06-17T04:02:38.232Z,66.62
2018-06-17T04:03:09.461Z,66.97
2018-06-17T04:03:40.705Z,67.41
2018-06-17T04:04:12.025Z,67.49
2018-06-17T04:04:43.260Z,68.04
2018-06-17T04:05:14.497Z,68.29
2018-06-17T04:05:45.725Z,68.01
2018-06-17T04:06:16.970Z,68.82
2018-06-17T04:06:48.201Z,69.41
2018-06-17T04:07:19.529Z,69.52
2018-06-17T04:07:50.768Z,68.92
2018-06-17T04:08:22.013Z,69.20
2018-06-17T04:08:53.249Z,69.67
2018-06-17T04:09:24.493Z,69.72
2018-06-17T04:09:55.725Z,69.83
2018-06-17T04:10:26.974Z,70.89
2018-06-17T04:10:58.312Z,70.46
2018-06-17T04:11:29.562Z,70.48
2018-06-17T04:12:00.803Z,71.01
2018-06-17T04:12:32.086Z,71.56
2018-06-17T04:13:03.319Z,71.52
2018-06-17T04:13:34.585Z,71.68
2018-06-17T04:14:05.814Z,72.12
2018-06-17T04:14:37.054Z,71.84
2018-06-17T04:15:08.288Z,71.96
2018-06-17T04:15:39.529Z,71.55
2018-06-17T04:16:10.761Z,71.65
2018-06-17T04:16:41.993Z,71.71
2018-06-17T04:17:13.230Z,71.38
2018-06-17T04:17:44.492Z,71.43
2018-06-17T04:18:15.792Z,71.33
2018-06-17T04:18:47.082Z,71.47
2018-06-17T04:19:18.315Z,71.24
2018-06-17T04:19:49.551Z,71.19
2018-06-17T04:20:20.781Z,70.46
2018-06-17T04:20:52.017Z,70.27
2018-06-17T04:21:23.249Z,70.81
2018-06-17T04:21:54.484Z,70.95
2018-06-17T04:22:25.718Z,70.33
2018-06-17T04:22:56.956Z,70.44
2018-06-17T04:23:28.197Z,69.95
2018-06-17T04:23:59.465Z,69.79
2018-06-17T04:24:30.694Z,69.68
2018-06-17T04:25:01.925Z,70.03
2018-06-17T04:25:33.156Z,69.29
2018-06-17T04:26:04.434Z,69.46
2018-06-17T04:26:35.669Z,69.95
2018-06-17T04:27:06.904Z,69.22
2018-06-17T04:27:38.185Z,69.28
2018-06-17T04:28:09.410Z,68.90
2018-06-17T04:28:40.644Z,69.50
2018-06-17T04:29:11.928Z,68.74
2018-06-17T04:29:43.157Z,68.20
2018-06-17T04:30:14.441Z,68.88
2018-06-17T04:30:45.677Z,68.67
2018-06-17T04:31:16.913Z,68.24
2018-06-17T04:31:48.142Z,68.75
2018-06-17T04:32:19.421Z,68.70
2018-06-17T04:32:50.659Z,68.72
2018-06-17T04:33:21.953Z,68.33
2018-06-17T04:33:53.188Z,67.63
2018-06-17T04:34:24.429Z,68.41
2018-06-17T04:34:55.713Z,67.87
2018-06-17T04:35:26.959Z,68.24
2018-06-17T04:35:58.228Z,67.96
2018-06-17T04:36:29.468Z,67.63
2018-06-17T04:37:00.702Z,68.10
2018-06-17T04:37:31.935Z,67.49
2018-06-17T04:38:03.169Z,67.78
2018-06-17T04:38:34.417Z,67.39
2018-06-17T04:39:05.649Z,67.69
2018-06-17T04:39:36.888Z,67.62
2018-06-17T04:40:08.159Z,68.25
2018-06-17T04:40:39.403Z,67.55
2018-06-17T04:41:10.657Z,68.00
2018-06-17T04:41:41.886Z,67.12
2018-06-17T04:42:13.173Z,66.85
2018-06-17T04:42:44.404Z,67.07
2018-06-17T04:43:15.636Z,67.06
2018-06-17T04:43:46.876Z,67.61
2018-06-17T04:44:18.109Z,67.60
2018-06-17T04:44:49.341Z,66.72
2018-06-17T04:45:20.580Z,66.78
2018-06-17T04:45:51.857Z,66.46
2018-06-17T04:46:23.127Z,66.07
2018-06-17T04:46:54.366Z,66.37
2018-06-17T04:47:25.605Z,66.69
2018-06-17T04:47:56.873Z,66.45
2018-06-17T04:48:28.130Z,66.70
2018-06-17T04:48:59.381Z,66.06
2018-06-17T04:49:30.613Z,65.78
2018-06-17T04:50:01.883Z,65.97
2018-06-17T04:50:33.125Z,66.38
2018-06-17T04:51:04.389Z,66.17
2018-06-17T04:51:35.626Z,65.80
2018-06-17T04:52:06.869Z,65.01
2018-06-17T04:52:38.102Z,65.28
2018-06-17T04:53:09.385Z,64.82
2018-06-17T04:53:40.621Z,64.99
2018-06-17T04:54:11.858Z,64.31
2018-06-17T04:54:43.120Z,64.26
2018-06-17T04:55:14.356Z,64.23
2018-06-17T04:55:45.612Z,63.59
2018-06-17T04:56:16.884Z,63.12
2018-06-17T04:56:48.120Z,62.01
2018-06-17T04:57:19.361Z,62.88
2018-06-17T04:57:50.603Z,62.80
2018-06-17T04:58:21.844Z,62.14
2018-06-17T04:58:53.076Z,62.30
2018-06-17T04:59:24.352Z,62.84
2018-06-17T04:59:55.626Z,62.01
2018-06-17T05:00:26.845Z,61.66
2018-06-17T05:00:58.137Z,62.22
2018-06-17T05:01:29.365Z,62.16
2018-06-17T05:02:00.599Z,62.10
2018-06-17T05:02:31.824Z,62.43
2018-06-17T05:03:03.053Z,61.42
2018-06-17T05:03:34.325Z,61.69
2018-06-17T05:04:05.553Z,61.43
2018-06-17T05:04:36.817Z,61.88
2018-06-17T05:05:08.066Z,60.96
2018-06-17T05:05:39.301Z,61.12
2018-06-17T05:06:10.615Z,61.04
2018-06-17T05:06:41.845Z,60.20
2018-06-17T05:07:13.077Z,61.01
2018-06-17T05:07:44.314Z,61.12
2018-06-17T05:08:15.564Z,61.40
2018-06-17T05:08:46.805Z,61.21
2018-06-17T05:09:18.037Z,60.61
2018-06-17T05:09:49.262Z,60.51
2018-06-17T05:10:20.525Z,60.40
2018-06-17T05:10:51.765Z,60.58
2018-06-17T05:11:22.997Z,60.66
2018-06-17T05:11:54.225Z,61.02
2018-06-17T05:12:25.457Z,60.99
2018-06-17T05:12:56.689Z,60.25
2018-06-17T05:13:27.972Z,61.08
2018-06-17T05:13:59.216Z,60.41
2018-06-17T05:14:30.440Z,59.37
2018-06-17T05:15:01.678Z,60.08
2018-06-17T05:15:32.909Z,59.73
2018-06-17T05:16:04.184Z,59.43
2018-06-17T05:16:35.416Z,58.81
2018-06-17T05:17:06.674Z,57.88
2018-06-17T05:17:37.933Z,58.22
2018-06-17T05:18:09.165Z,58.63
2018-06-17T05:18:40.403Z,58.78
2018-06-17T05:19:11.638Z,58.94
2018-06-17T05:19:42.905Z,58.51
2018-06-17T05:20:14.150Z,58.84
2018-06-17T05:20:45.381Z,58.44
2018-06-17T05:21:16.617Z,57.63
2018-06-17T05:21:47.845Z,58.19
2018-06-17T05:22:19.079Z,57.70
2018-06-17T05:22:50.315Z,58.19
2018-06-17T05:23:21.570Z,57.78
2018-06-17T05:23:52.809Z,56.48
2018-06-17T05:24:24.053Z,55.38
2018-06-17T05:24:55.318Z,54.39
2018-06-17T05:25:26.595Z,53.82
2018-06-17T05:25:57.866Z,53.01
2018-06-17T05:26:29.093Z,51.13
2018-06-17T05:27:00.329Z,51.10
2018-06-17T05:27:31.558Z,50.56
2018-06-17T05:28:02.789Z,50.25
2018-06-17T05:28:34.077Z,49.93
2018-06-17T05:29:05.315Z,48.90
2018-06-17T05:29:36.545Z,48.68
2018-06-17T05:30:07.790Z,48.88
2018-06-17T05:30:39.049Z,48.82
2018-06-17T05:31:10.291Z,47.08
2018-06-17T05:31:41.525Z,47.20
2018-06-17T05:32:12.757Z,46.20
2018-06-17T05:32:44.032Z,45.74
2018-06-17T05:33:15.282Z,45.70
2018-06-17T05:33:46.570Z,45.05
2018-06-17T05:34:17.789Z,45.60
2018-06-17T05:34:49.018Z,44.98
2018-06-17T05:35:20.249Z,44.36
2018-06-17T05:35:51.481Z,44.29
2018-06-17T05:36:22.758Z,45.09
2018-06-17T05:36:53.995Z,44.97
2018-06-17T05:37:25.243Z,44.22
2018-06-17T05:37:56.476Z,43.55
2018-06-17T05:38:27.722Z,42.53
2018-06-17T05:38:58.980Z,42.81
2018-06-17T05:39:30.225Z,42.18
2018-06-17T05:40:01.462Z,41.56
2018-06-17T05:40:32.745Z,40.54
2018-06-17T05:41:03.988Z,40.62
2018-06-17T05:41:35.217Z,40.78
2018-06-17T05:42:06.454Z,40.49
2018-06-17T05:42:37.685Z,40.32
2018-06-17T05:43:08.920Z,40.67
2018-06-17T05:43:40.233Z,41.02
2018-06-17T05:44:11.479Z,41.16
2018-06-17T05:44:42.717Z,41.04
2018-06-17T05:45:13.950Z,40.32
2018-06-17T05:45:45.221Z,40.47
2018-06-17T05:46:16.469Z,40.37
2018-06-17T05:46:47.717Z,40.22
2018-06-17T05:47:18.954Z,39.97
2018-06-17T05:47:50.185Z,39.80
2018-06-17T05:48:21.469Z,39.34
2018-06-17T05:48:52.701Z,39.81
2018-06-17T05:49:23.928Z,39.52
2018-06-17T05:49:55.165Z,39.61
2018-06-17T05:50:26.389Z,39.72
2018-06-17T05:50:57.656Z,39.93
2018-06-17T05:51:28.920Z,40.25
2018-06-17T05:52:00.145Z,39.97
2018-06-17T05:52:31.375Z,40.66
2018-06-17T05:53:02.611Z,40.61
2018-06-17T05:53:33.841Z,40.99
2018-06-17T05:54:05.073Z,40.63
2018-06-17T05:54:36.324Z,41.25
2018-06-17T05:55:07.558Z,40.96
2018-06-17T05:55:38.789Z,40.76
2018-06-17T05:56:10.202Z,41.22
2018-06-17T05:56:41.441Z,41.54
2018-06-17T05:57:12.673Z,41.01
2018-06-17T05:57:43.905Z,41.96
2018-06-17T05:58:15.185Z,41.57
2018-06-17T05:58:46.422Z,41.69
2018-06-17T05:59:17.661Z,41.43
2018-06-17T05:59:48.897Z,40.82
2018-06-17T06:00:20.134Z,41.24
2018-06-17T06:00:51.366Z,41.91
2018-06-17T06:01:22.641Z,41.99
2018-06-17T06:01:53.872Z,42.35
2018-06-17T06:02:25.103Z,42.45
2018-06-17T06:02:56.333Z,42.48
2018-06-17T06:03:27.658Z,43.07
2018-06-17T06:03:58.911Z,43.13
2018-06-17T06:04:30.143Z,42.75
2018-06-17T06:05:01.382Z,43.32
2018-06-17T06:05:32.610Z,42.69
2018-06-17T06:06:03.890Z,43.34
2018-06-17T06:06:35.125Z,42.88
2018-06-17T06:07:06.357Z,42.35
2018-06-17T06:07:37.585Z,42.26
2018-06-17T06:08:08.823Z,42.10
2018-06-17T06:08:40.076Z,43.03
2018-06-17T06:09:11.322Z,42.72
2018-06-17T06:09:42.562Z,43.49
2018-06-17T06:10:13.798Z,43.33
2018-06-17T06:10:45.030Z,43.13
2018-06-17T06:11:16.336Z,43.56
2018-06-17T06:11:47.642Z,42.99
2018-06-17T06:12:18.878Z,43.08
2018-06-17T06:12:50.112Z,43.13
2018-06-17T06:13:21.341Z,42.38
2018-06-17T06:13:52.568Z,42.51
2018-06-17T06:14:23.820Z,42.41
2018-06-17T06:14:55.061Z,42.88
2018-06-17T06:15:26.345Z,42.51
2018-06-17T06:15:57.573Z,43.56
2018-06-17T06:16:28.841Z,43.94
2018-06-17T06:17:00.080Z,42.57
2018-06-17T06:17:31.317Z,43.13
2018-06-17T06:18:02.553Z,43.10
2018-06-17T06:18:33.787Z,43.88
2018-06-17T06:19:05.040Z,43.96
2018-06-17T06:19:36.299Z,44.32
2018-06-17T06:20:07.550Z,44.62
2018-06-17T06:20:38.836Z,45.37
2018-06-17T06:21:10.074Z,43.98
2018-06-17T06:21:41.387Z,44.20
2018-06-17T06:22:12.770Z,44.79
2018-06-17T06:22:44.092Z,45.26
2018-06-17T06:23:15.345Z,43.77
2018-06-17T06:23:46.628Z,45.79
2018-06-17T06:24:17.968Z,45.43
2018-06-17T06:24:49.389Z,45.16
2018-06-17T06:25:20.756Z,44.90
2018-06-17T06:25:52.111Z,45.45
2018-06-17T06:26:23.572Z,44.96
2018-06-17T06:26:55.031Z,44.06
2018-06-17T06:27:26.488Z,44.21
2018-06-17T06:27:57.852Z,44.31
2018-06-17T06:28:29.379Z,44.26
2018-06-17T06:29:00.902Z,43.67
2018-06-17T06:29:32.409Z,43.13
2018-06-17T06:30:03.909Z,43.28
2018-06-17T06:30:35.439Z,42.73
2018-06-17T06:31:06.960Z,42.46
2018-06-17T06:31:38.420Z,42.67
2018-06-17T06:32:09.924Z,44.13
2018-06-17T06:32:41.430Z,43.31
2018-06-17T06:33:12.927Z,43.94
2018-06-17T06:33:44.444Z,44.18
2018-06-17T06:34:15.903Z,44.31
2018-06-17T06:34:47.433Z,44.64
2018-06-17T06:35:18.973Z,45.17
2018-06-17T06:35:50.484Z,44.30
2018-06-17T06:36:21.893Z,44.58
2018-06-17T06:36:53.294Z,44.32
2018-06-17T06:37:24.737Z,43.87
2018-06-17T06:37:56.155Z,44.27
2018-06-17T06:38:27.595Z,44.11
2018-06-17T06:38:59.087Z,43.81
2018-06-17T06:39:30.484Z,43.35
2018-06-17T06:40:01.934Z,42.80
2018-06-17T06:40:33.345Z,41.40
2018-06-17T06:41:04.719Z,41.35
2018-06-17T06:41:36.148Z,42.06
2018-06-17T06:42:07.583Z,43.13